Time;durP1;ratioP1;P1;durP2;ratioP2;P2;SDS_P1;SDS_P2;PMS_P1;PMS_P2;Temp;Humidity;BMP_temperature;BMP_pressure;BME280_temperature;BME280_humidity;BME280_pressure;Samples;Min_cycle;Max_cycle;Signal;HPM_P1;HPM_P2
2023/06/24 00:01:54;;;;;;;22.10;19.83;;;;;;;;;;4998343;28;20505;-81
2023/06/24 00:04:20;;;;;;;24.13;20.70;;;;;;;;;;4982205;28;20031;-81
2023/06/24 00:06:46;;;;;;;21.67;19.40;;;;;;;;;;4997086;28;20030;-78
2023/06/24 00:09:12;;;;;;;21.95;18.90;;;;;;;;;;4999886;28;20046;-81
2023/06/24 00:11:38;;;;;;;20.38;18.33;;;;;;;;;;5003990;28;20138;-82
2023/06/24 00:14:06;;;;;;;24.30;18.40;;;;;;;;;;5003099;28;20053;-81
2023/06/24 00:16:33;;;;;;;21.25;18.73;;;;;;;;;;5003519;28;20038;-82
2023/06/24 00:19:00;;;;;;;21.35;18.73;;;;;;;;;;5004475;28;20041;-83
2023/06/24 00:21:29;;;;;;;20.00;18.02;;;;;;;;;;5005947;28;20066;-81
2023/06/24 00:23:57;;;;;;;21.55;19.40;;;;;;;;;;5004153;28;20035;-82
2023/06/24 00:26:23;;;;;;;23.60;20.10;;;;;;;;;;5001007;28;20409;-81
2023/06/24 00:28:50;;;;;;;22.27;19.70;;;;;;;;;;5004720;28;20501;-83
2023/06/24 00:31:16;;;;;;;23.23;20.73;;;;;;;;;;5004953;28;20590;-82
2023/06/24 00:33:42;;;;;;;25.02;19.92;;;;;;;;;;5003031;28;20041;-80
2023/06/24 00:36:11;;;;;;;25.27;19.90;;;;;;;;;;5005692;28;20066;-82
2023/06/24 00:38:38;;;;;;;21.60;19.42;;;;;;;;;;5005805;28;20073;-83
2023/06/24 00:41:04;;;;;;;20.73;18.40;;;;;;;;;;5004333;28;20038;-81
2023/06/24 00:43:31;;;;;;;22.08;17.48;;;;;;;;;;5006056;28;20088;-82
2023/06/24 00:45:57;;;;;;;16.92;15.32;;;;;;;;;;5004891;28;20046;-81
2023/06/24 00:48:24;;;;;;;18.42;16.40;;;;;;;;;;5005195;28;20041;-80
2023/06/24 00:50:50;;;;;;;16.35;14.77;;;;;;;;;;5006745;28;20038;-82
2023/06/24 00:53:16;;;;;;;15.10;13.57;;;;;;;;;;5009665;28;20034;-82
2023/06/24 00:55:45;;;;;;;15.48;14.07;;;;;;;;;;5010604;28;20133;-81
2023/06/24 00:58:16;;;;;;;13.88;12.52;;;;;;;;;;5011493;28;20118;-81
2023/06/24 01:00:43;;;;;;;13.82;12.63;;;;;;;;;;5007553;28;20046;-81
2023/06/24 01:03:09;;;;;;;10.70;9.70;;;;;;;;;;5005208;28;20058;-81
2023/06/24 01:05:35;;;;;;;10.40;9.60;;;;;;;;;;5002945;28;20045;-82
2023/06/24 01:08:01;;;;;;;12.23;11.02;;;;;;;;;;5003143;28;20957;-81
2023/06/24 01:10:27;;;;;;;11.77;10.57;;;;;;;;;;4986622;28;20046;-82
2023/06/24 01:12:54;;;;;;;11.25;10.45;;;;;;;;;;5012623;28;20058;-83
2023/06/24 01:15:21;;;;;;;12.32;11.05;;;;;;;;;;5010950;28;20525;-82
2023/06/24 01:17:54;;;;;;;9.18;8.57;;;;;;;;;;5008210;28;20053;-82
2023/06/24 01:20:20;;;;;;;11.25;10.45;;;;;;;;;;5008665;28;20180;-82
2023/06/24 01:23:04;;;;;;;10.00;9.20;;;;;;;;;;5009240;28;20058;-81
2023/06/24 01:25:49;;;;;;;9.68;8.95;;;;;;;;;;5007305;28;20131;-82
2023/06/24 01:28:19;;;;;;;10.02;9.23;;;;;;;;;;5007456;28;20102;-82
2023/06/24 01:31:06;;;;;;;10.00;9.20;;;;;;;;;;5007729;28;20507;-82
2023/06/24 01:33:36;;;;;;;10.45;9.48;;;;;;;;;;5007936;28;20027;-83
2023/06/24 01:36:02;;;;;;;8.63;7.88;;;;;;;;;;5006517;28;20041;-79
2023/06/24 01:38:36;;;;;;;9.05;8.25;;;;;;;;;;5005366;28;20034;-80
2023/06/24 01:41:02;;;;;;;8.38;7.78;;;;;;;;;;5003450;28;22070;-80
2023/06/24 01:43:28;;;;;;;9.60;8.77;;;;;;;;;;4999656;28;20041;-81
2023/06/24 01:45:55;;;;;;;10.40;9.50;;;;;;;;;;4999290;28;20046;-81
2023/06/24 01:48:25;;;;;;;7.07;6.57;;;;;;;;;;5003855;28;20041;-81
2023/06/24 01:50:59;;;;;;;10.52;9.60;;;;;;;;;;4985472;28;20048;-81
2023/06/24 01:53:28;;;;;;;9.52;8.82;;;;;;;;;;4983517;28;20030;-81
2023/06/24 01:55:57;;;;;;;9.60;8.82;;;;;;;;;;5002450;28;20102;-82
2023/06/24 01:58:23;;;;;;;9.55;8.65;;;;;;;;;;4969796;28;20035;-82
2023/06/24 02:00:49;;;;;;;9.15;8.43;;;;;;;;;;4968565;28;20429;-80
2023/06/24 02:03:15;;;;;;;9.10;7.35;;;;;;;;;;4985995;28;20035;-82
2023/06/24 02:05:42;;;;;;;6.55;6.10;;;;;;;;;;5009642;28;20046;-82
2023/06/24 02:08:08;;;;;;;6.57;6.07;;;;;;;;;;5008858;28;20030;-81
2023/06/24 02:10:38;;;;;;;6.57;6.07;;;;;;;;;;5006308;28;20105;-82
2023/06/24 02:13:04;;;;;;;6.13;5.60;;;;;;;;;;5007560;28;20042;-82
2023/06/24 02:15:30;;;;;;;6.13;5.68;;;;;;;;;;5008468;28;20053;-83
2023/06/24 02:17:57;;;;;;;5.55;5.05;;;;;;;;;;4991943;28;20038;-84
2023/06/24 02:20:27;;;;;;;4.88;4.57;;;;;;;;;;5008668;28;20053;-81
2023/06/24 02:22:53;;;;;;;5.73;5.33;;;;;;;;;;4985587;28;20038;-82
2023/06/24 02:25:20;;;;;;;4.10;3.88;;;;;;;;;;4970799;28;20066;-84
2023/06/24 02:27:46;;;;;;;6.68;5.18;;;;;;;;;;5004770;28;20030;-81
2023/06/24 02:30:13;;;;;;;4.03;3.83;;;;;;;;;;5006370;28;20062;-80
2023/06/24 02:32:38;;;;;;;6.50;6.00;;;;;;;;;;5005302;28;20069;-82
2023/06/24 02:35:05;;;;;;;4.07;3.78;;;;;;;;;;5009891;28;20129;-82
2023/06/24 02:37:31;;;;;;;13.07;10.77;;;;;;;;;;4976035;28;20049;-82
2023/06/24 02:39:57;;;;;;;5.82;5.32;;;;;;;;;;5003512;28;20050;-80
2023/06/24 02:42:23;;;;;;;5.80;5.38;;;;;;;;;;5004497;28;20045;-81
2023/06/24 02:44:50;;;;;;;6.65;6.00;;;;;;;;;;4990485;28;20039;-80
2023/06/24 02:47:16;;;;;;;5.68;5.28;;;;;;;;;;5011720;28;20038;-82
2023/06/24 02:49:42;;;;;;;6.05;4.82;;;;;;;;;;5013789;28;20525;-82
2023/06/24 02:52:08;;;;;;;5.80;5.30;;;;;;;;;;4990576;28;20096;-81
2023/06/24 02:54:35;;;;;;;5.82;5.43;;;;;;;;;;5003725;28;20113;-82
2023/06/24 02:57:31;;;;;;;4.88;4.47;;;;;;;;;;4994777;28;20046;-81
2023/06/24 03:00:26;;;;;;;5.45;5.15;;;;;;;;;;5006175;28;20050;-81
2023/06/24 03:03:07;;;;;;;5.10;4.72;;;;;;;;;;5010424;28;20045;-82
2023/06/24 03:05:35;;;;;;;5.32;5.03;;;;;;;;;;5008863;28;20034;-82
2023/06/24 03:08:03;;;;;;;5.28;4.97;;;;;;;;;;5009307;28;20045;-82
2023/06/24 03:10:30;;;;;;;5.70;5.32;;;;;;;;;;5010880;28;20090;-82
2023/06/24 03:12:57;;;;;;;5.47;5.07;;;;;;;;;;5010321;28;20030;-83
2023/06/24 03:15:31;;;;;;;3.90;3.55;;;;;;;;;;5007153;28;20034;-82
2023/06/24 03:17:58;;;;;;;4.55;4.15;;;;;;;;;;4988732;28;20034;-83
2023/06/24 03:20:26;;;;;;;4.72;4.22;;;;;;;;;;5002758;28;20421;-83
2023/06/24 03:22:56;;;;;;;4.15;3.95;;;;;;;;;;5004653;28;20321;-82
2023/06/24 03:25:23;;;;;;;4.60;4.20;;;;;;;;;;4992664;28;20038;-81
2023/06/24 03:27:49;;;;;;;4.40;4.07;;;;;;;;;;4992434;28;20074;-82
2023/06/24 03:30:15;;;;;;;3.58;3.38;;;;;;;;;;5010314;28;20034;-81
2023/06/24 03:32:46;;;;;;;3.58;3.38;;;;;;;;;;5008236;28;20097;-81
2023/06/24 03:35:13;;;;;;;2.80;2.65;;;;;;;;;;4985922;28;20038;-83
2023/06/24 03:37:40;;;;;;;2.70;2.50;;;;;;;;;;5003776;28;20030;-83
2023/06/24 03:40:06;;;;;;;1.98;1.88;;;;;;;;;;5007655;28;20050;-83
2023/06/24 03:42:32;;;;;;;3.08;2.88;;;;;;;;;;4993452;28;20039;-82
2023/06/24 03:44:58;;;;;;;2.50;2.40;;;;;;;;;;5008480;28;20052;-83
2023/06/24 03:47:24;;;;;;;2.35;2.10;;;;;;;;;;4992664;28;20046;-83
2023/06/24 03:49:50;;;;;;;2.63;2.53;;;;;;;;;;5008777;28;20034;-83
2023/06/24 03:52:19;;;;;;;3.45;2.42;;;;;;;;;;4989535;28;20061;-82
2023/06/24 03:54:46;;;;;;;2.75;2.45;;;;;;;;;;4989805;28;20038;-82
2023/06/24 03:57:12;;;;;;;2.70;2.50;;;;;;;;;;5008076;28;20085;-82
2023/06/24 03:59:38;;;;;;;3.20;2.40;;;;;;;;;;4993736;28;20058;-83
2023/06/24 04:02:07;;;;;;;2.00;1.90;;;;;;;;;;5009538;28;20049;-83
2023/06/24 04:04:34;;;;;;;1.52;1.42;;;;;;;;;;5009874;28;20041;-83
2023/06/24 04:07:00;;;;;;;1.88;1.75;;;;;;;;;;5010732;28;20045;-83
2023/06/24 04:09:26;;;;;;;1.80;1.70;;;;;;;;;;5009634;28;20038;-82
2023/06/24 04:11:53;;;;;;;4.05;1.55;;;;;;;;;;5008852;28;20026;-83
2023/06/24 04:14:19;;;;;;;2.33;2.10;;;;;;;;;;5010583;28;20074;-84
2023/06/24 04:16:45;;;;;;;2.42;1.60;;;;;;;;;;5010375;28;20041;-80
2023/06/24 04:19:11;;;;;;;4.40;1.60;;;;;;;;;;5008615;28;20034;-83
2023/06/24 04:21:37;;;;;;;1.58;1.58;;;;;;;;;;5007865;28;20058;-81
2023/06/24 04:24:03;;;;;;;1.77;1.60;;;;;;;;;;5006725;28;20038;-81
2023/06/24 04:26:30;;;;;;;1.85;1.75;;;;;;;;;;5007277;28;20040;-81
2023/06/24 04:28:56;;;;;;;1.77;1.67;;;;;;;;;;5007834;28;20089;-81
2023/06/24 04:31:22;;;;;;;2.30;2.10;;;;;;;;;;5006191;28;20033;-83
2023/06/24 04:33:48;;;;;;;2.92;1.40;;;;;;;;;;5003799;28;20042;-83
2023/06/24 04:36:14;;;;;;;3.30;1.55;;;;;;;;;;5005394;28;20057;-83
2023/06/24 04:38:41;;;;;;;3.63;1.70;;;;;;;;;;4987681;28;20149;-83
2023/06/24 04:41:08;;;;;;;1.50;1.40;;;;;;;;;;5001752;28;20069;-81
2023/06/24 04:43:35;;;;;;;1.45;1.38;;;;;;;;;;5002814;28;20042;-82
2023/06/24 04:46:01;;;;;;;1.60;1.50;;;;;;;;;;4990609;28;20045;-82
2023/06/24 04:48:27;;;;;;;1.10;1.10;;;;;;;;;;5007128;28;20045;-82
2023/06/24 04:50:54;;;;;;;1.75;1.65;;;;;;;;;;5003635;28;20484;-82
2023/06/24 04:53:21;;;;;;;1.50;1.40;;;;;;;;;;5008911;28;20095;-82
2023/06/24 04:55:46;;;;;;;1.08;1.08;;;;;;;;;;5015972;28;20061;-82
2023/06/24 04:58:12;;;;;;;0.90;0.90;;;;;;;;;;5007368;28;20041;-83
2023/06/24 05:00:38;;;;;;;1.40;1.40;;;;;;;;;;5006181;28;20042;-82
2023/06/24 05:03:05;;;;;;;0.80;0.80;;;;;;;;;;5005127;28;20038;-82
2023/06/24 05:05:30;;;;;;;1.20;1.20;;;;;;;;;;5006095;28;20039;-83
2023/06/24 05:07:56;;;;;;;0.73;0.73;;;;;;;;;;5000092;28;20023;-83
2023/06/24 05:10:22;;;;;;;1.50;1.40;;;;;;;;;;4998362;28;20037;-83
2023/06/24 05:12:48;;;;;;;1.17;1.17;;;;;;;;;;5002407;28;20050;-83
2023/06/24 05:15:14;;;;;;;1.10;1.10;;;;;;;;;;5003186;28;20052;-81
2023/06/24 05:17:41;;;;;;;2.00;1.90;;;;;;;;;;5004765;28;20113;-82
2023/06/24 05:20:07;;;;;;;1.80;1.70;;;;;;;;;;5003424;28;20114;-82
2023/06/24 05:22:33;;;;;;;1.42;1.42;;;;;;;;;;5005130;28;20123;-82
2023/06/24 05:24:59;;;;;;;1.10;1.10;;;;;;;;;;5000265;28;20042;-83
2023/06/24 05:27:25;;;;;;;1.08;1.08;;;;;;;;;;4999094;28;20076;-82
2023/06/24 05:29:51;;;;;;;1.20;1.20;;;;;;;;;;5006582;28;20034;-82
2023/06/24 05:32:19;;;;;;;1.25;1.25;;;;;;;;;;5003016;28;20038;-82
2023/06/24 05:34:46;;;;;;;1.25;1.25;;;;;;;;;;5004657;28;20042;-82
2023/06/24 05:37:12;;;;;;;1.40;1.30;;;;;;;;;;5005290;28;20125;-83
2023/06/24 05:39:38;;;;;;;1.38;1.05;;;;;;;;;;4982944;28;20034;-83
2023/06/24 05:42:04;;;;;;;1.10;1.10;;;;;;;;;;4997204;28;20131;-82
2023/06/24 05:44:31;;;;;;;1.80;1.02;;;;;;;;;;4997093;28;20416;-83
2023/06/24 05:46:57;;;;;;;1.40;1.20;;;;;;;;;;4997225;28;20075;-82
2023/06/24 05:49:24;;;;;;;1.55;1.10;;;;;;;;;;4980747;28;20425;-80
2023/06/24 05:51:50;;;;;;;0.93;0.93;;;;;;;;;;5000085;28;20378;-81
2023/06/24 05:54:16;;;;;;;1.70;1.60;;;;;;;;;;5000134;28;20043;-82
2023/06/24 05:56:43;;;;;;;1.05;1.00;;;;;;;;;;4985071;28;20034;-79
2023/06/24 05:59:09;;;;;;;1.23;1.23;;;;;;;;;;5002311;28;20108;-82
2023/06/24 06:01:35;;;;;;;1.80;1.70;;;;;;;;;;5003934;28;20070;-83
2023/06/24 06:04:02;;;;;;;1.40;1.40;;;;;;;;;;5011197;28;20031;-83
2023/06/24 06:06:28;;;;;;;2.97;1.50;;;;;;;;;;5011215;28;20034;-81
2023/06/24 06:08:54;;;;;;;1.30;1.20;;;;;;;;;;4996175;28;20098;-82
2023/06/24 06:11:20;;;;;;;1.58;1.58;;;;;;;;;;5014318;28;20035;-82
2023/06/24 06:13:47;;;;;;;1.75;1.50;;;;;;;;;;5014729;28;20010;-82
2023/06/24 06:16:13;;;;;;;1.63;1.60;;;;;;;;;;5014680;28;20066;-82
2023/06/24 06:18:39;;;;;;;1.77;1.67;;;;;;;;;;5013469;28;20037;-82
2023/06/24 06:21:06;;;;;;;1.70;1.60;;;;;;;;;;5006977;28;20060;-82
2023/06/24 06:23:32;;;;;;;1.60;1.58;;;;;;;;;;5012238;28;20007;-82
2023/06/24 06:25:58;;;;;;;4.22;1.60;;;;;;;;;;5011415;28;20181;-83
2023/06/24 06:28:24;;;;;;;1.63;1.52;;;;;;;;;;5011772;28;20071;-83
2023/06/24 06:30:50;;;;;;;1.95;1.83;;;;;;;;;;4996009;28;20022;-81
2023/06/24 06:33:16;;;;;;;1.45;1.45;;;;;;;;;;5013190;28;20034;-82
2023/06/24 06:35:42;;;;;;;6.38;2.17;;;;;;;;;;5006940;28;20026;-84
2023/06/24 06:38:08;;;;;;;1.63;1.60;;;;;;;;;;5005250;28;20042;-83
2023/06/24 06:40:35;;;;;;;1.75;1.73;;;;;;;;;;5003626;28;20185;-83
2023/06/24 06:43:01;;;;;;;2.15;1.80;;;;;;;;;;4985989;28;20065;-83
2023/06/24 06:45:27;;;;;;;1.67;1.52;;;;;;;;;;5009928;28;20034;-82
2023/06/24 06:47:53;;;;;;;1.65;1.55;;;;;;;;;;4976097;28;20603;-82
2023/06/24 06:50:19;;;;;;;2.03;1.92;;;;;;;;;;5003954;28;20030;-81
2023/06/24 06:52:45;;;;;;;3.13;1.90;;;;;;;;;;5001540;28;20057;-81
2023/06/24 06:55:11;;;;;;;2.85;1.80;;;;;;;;;;5003344;28;20100;-83
2023/06/24 06:57:37;;;;;;;1.80;1.80;;;;;;;;;;4982708;28;20113;-83
2023/06/24 07:00:03;;;;;;;1.33;1.33;;;;;;;;;;5003237;28;20077;-83
2023/06/24 07:02:32;;;;;;;2.75;2.10;;;;;;;;;;5001628;28;20061;-83
2023/06/24 07:04:59;;;;;;;1.52;1.42;;;;;;;;;;5001729;28;20041;-81
2023/06/24 07:07:25;;;;;;;2.10;2.00;;;;;;;;;;5003715;28;20056;-82
2023/06/24 07:09:51;;;;;;;2.35;2.17;;;;;;;;;;5001590;28;20094;-83
2023/06/24 07:12:17;;;;;;;2.03;1.92;;;;;;;;;;5003165;28;20049;-81
2023/06/24 07:14:43;;;;;;;2.00;1.90;;;;;;;;;;5003192;28;20031;-81
2023/06/24 07:17:10;;;;;;;2.13;2.03;;;;;;;;;;5003447;28;20524;-83
2023/06/24 07:19:36;;;;;;;2.50;2.30;;;;;;;;;;4971777;28;20039;-83
2023/06/24 07:22:02;;;;;;;2.53;2.42;;;;;;;;;;5004962;28;20068;-84
2023/06/24 07:24:28;;;;;;;3.10;2.33;;;;;;;;;;5005838;28;20038;-83
2023/06/24 07:26:54;;;;;;;2.40;2.20;;;;;;;;;;5004641;28;20352;-82
2023/06/24 07:29:21;;;;;;;2.15;2.05;;;;;;;;;;5001902;28;20034;-84
2023/06/24 07:31:47;;;;;;;2.20;2.10;;;;;;;;;;4969581;28;20044;-82
2023/06/24 07:34:13;;;;;;;5.20;2.47;;;;;;;;;;5002905;28;20066;-83
2023/06/24 07:36:39;;;;;;;3.50;2.40;;;;;;;;;;5002854;28;20229;-83
2023/06/24 07:39:05;;;;;;;3.20;2.38;;;;;;;;;;4990502;28;20038;-83
2023/06/24 07:41:32;;;;;;;2.65;2.45;;;;;;;;;;5013613;28;20057;-82
2023/06/24 07:43:58;;;;;;;2.92;2.30;;;;;;;;;;5012403;28;20030;-81
2023/06/24 07:46:26;;;;;;;2.90;2.70;;;;;;;;;;5013981;28;20098;-83
2023/06/24 07:48:52;;;;;;;2.55;2.45;;;;;;;;;;5012643;28;20125;-85
2023/06/24 07:51:19;;;;;;;2.60;2.40;;;;;;;;;;5012767;28;20054;-82
2023/06/24 07:53:45;;;;;;;3.00;2.80;;;;;;;;;;5015522;28;20027;-81
2023/06/24 07:56:11;;;;;;;2.47;2.28;;;;;;;;;;5013587;28;20026;-83
2023/06/24 07:58:38;;;;;;;5.40;2.65;;;;;;;;;;5012822;28;20034;-83
2023/06/24 08:01:04;;;;;;;2.88;2.67;;;;;;;;;;5012653;28;20061;-82
2023/06/24 08:03:30;;;;;;;4.43;2.90;;;;;;;;;;5012319;28;20034;-82
2023/06/24 08:05:56;;;;;;;4.32;2.88;;;;;;;;;;5010766;28;20034;-84
2023/06/24 08:08:22;;;;;;;4.30;2.58;;;;;;;;;;5007359;28;20030;-83
2023/06/24 08:10:48;;;;;;;11.27;2.30;;;;;;;;;;4999627;28;20038;-82
2023/06/24 08:13:14;;;;;;;2.72;2.53;;;;;;;;;;5004702;28;20042;-83
2023/06/24 08:15:40;;;;;;;2.42;2.28;;;;;;;;;;4995860;28;20029;-85
2023/06/24 08:18:06;;;;;;;3.30;2.55;;;;;;;;;;5017714;28;20042;-86
2023/06/24 08:20:32;;;;;;;2.60;2.40;;;;;;;;;;5016258;28;20042;-82
2023/06/24 08:22:59;;;;;;;2.20;2.00;;;;;;;;;;4984277;28;20647;-84
2023/06/24 08:25:26;;;;;;;3.13;2.20;;;;;;;;;;5016188;28;20098;-84
2023/06/24 08:27:52;;;;;;;3.30;2.42;;;;;;;;;;5017150;28;20042;-86
2023/06/24 08:30:19;;;;;;;2.13;2.03;;;;;;;;;;5015725;28;20029;-86
2023/06/24 08:32:45;;;;;;;2.50;2.30;;;;;;;;;;5017396;28;20050;-84
2023/06/24 08:35:11;;;;;;;2.15;2.05;;;;;;;;;;5016874;28;20089;-84
2023/06/24 08:37:37;;;;;;;2.45;2.25;;;;;;;;;;5018618;28;20038;-85
2023/06/24 08:40:06;;;;;;;2.60;2.40;;;;;;;;;;5017923;28;20030;-82
2023/06/24 08:42:33;;;;;;;2.40;2.30;;;;;;;;;;5016848;28;20046;-84
2023/06/24 08:44:59;;;;;;;4.82;2.40;;;;;;;;;;5015982;28;20033;-85
2023/06/24 08:47:25;;;;;;;2.67;2.47;;;;;;;;;;5013602;28;20026;-83
2023/06/24 08:50:04;;;;;;;2.20;2.10;;;;;;;;;;5012142;28;20030;-85
2023/06/24 08:52:32;;;;;;;5.53;2.30;;;;;;;;;;5010812;28;20057;-84
2023/06/24 08:54:59;;;;;;;2.80;2.60;;;;;;;;;;5010628;28;20031;-87
2023/06/24 08:57:25;;;;;;;2.50;2.30;;;;;;;;;;5012959;28;20057;-83
2023/06/24 08:59:51;;;;;;;2.92;2.20;;;;;;;;;;4994636;28;20037;-85
2023/06/24 09:02:18;;;;;;;4.15;2.28;;;;;;;;;;5015600;28;20042;-86
2023/06/24 09:04:44;;;;;;;2.60;2.28;;;;;;;;;;5014910;28;20041;-82
2023/06/24 09:07:11;;;;;;;2.17;2.08;;;;;;;;;;5015135;28;20022;-84
2023/06/24 09:09:46;;;;;;;4.45;2.35;;;;;;;;;;5016060;28;20021;-85
2023/06/24 09:12:13;;;;;;;3.08;2.67;;;;;;;;;;5014785;28;20101;-86
2023/06/24 09:14:40;;;;;;;2.53;2.33;;;;;;;;;;5014431;28;20057;-85
2023/06/24 09:17:09;;;;;;;2.33;2.17;;;;;;;;;;5014330;28;20042;-83
2023/06/24 09:19:39;;;;;;;4.25;2.20;;;;;;;;;;5012068;28;20026;-85
2023/06/24 09:22:06;;;;;;;3.30;2.25;;;;;;;;;;5012496;28;20148;-84
2023/06/24 09:24:36;;;;;;;2.65;2.15;;;;;;;;;;5012456;28;20026;-84
2023/06/24 09:27:02;;;;;;;4.63;2.63;;;;;;;;;;5011722;28;20038;-85
2023/06/24 09:29:31;;;;;;;2.90;2.33;;;;;;;;;;5010607;28;20524;-82
2023/06/24 09:31:59;;;;;;;2.63;1.98;;;;;;;;;;5000940;28;20397;-84
2023/06/24 09:34:26;;;;;;;2.35;2.13;;;;;;;;;;5001883;28;20038;-83
2023/06/24 09:36:53;;;;;;;3.00;2.60;;;;;;;;;;5006215;28;20042;-84
2023/06/24 09:39:22;;;;;;;2.13;2.03;;;;;;;;;;5004228;28;20042;-83
2023/06/24 09:41:50;;;;;;;3.55;2.55;;;;;;;;;;5008922;28;20070;-85
2023/06/24 09:44:18;;;;;;;2.70;2.60;;;;;;;;;;4989340;28;20520;-84
2023/06/24 09:46:45;;;;;;;5.68;2.50;;;;;;;;;;5001383;28;20100;-81
2023/06/24 09:49:11;;;;;;;3.05;2.53;;;;;;;;;;5004172;28;20035;-83
2023/06/24 09:51:38;;;;;;;4.30;2.60;;;;;;;;;;5000408;28;20046;-83
2023/06/24 09:54:09;;;;;;;4.10;3.72;;;;;;;;;;4998263;28;20109;-83
2023/06/24 09:56:36;;;;;;;5.88;4.13;;;;;;;;;;4997590;28;20047;-85
2023/06/24 09:59:06;;;;;;;10.55;9.68;;;;;;;;;;5000271;28;20034;-83
2023/06/24 10:01:33;;;;;;;6.30;5.70;;;;;;;;;;4998924;28;20145;-84
2023/06/24 10:03:59;;;;;;;5.30;5.00;;;;;;;;;;4984194;28;20049;-82
2023/06/24 10:06:25;;;;;;;5.53;5.10;;;;;;;;;;5003112;28;20038;-83
2023/06/24 10:08:52;;;;;;;4.60;4.30;;;;;;;;;;5002170;28;20035;-83
2023/06/24 10:11:18;;;;;;;3.70;3.40;;;;;;;;;;5001803;28;20035;-83
2023/06/24 10:13:44;;;;;;;3.40;3.20;;;;;;;;;;5009943;28;20504;-83
2023/06/24 10:16:10;;;;;;;3.40;3.20;;;;;;;;;;5014673;28;20421;-84
2023/06/24 10:18:36;;;;;;;3.30;3.10;;;;;;;;;;5008680;28;20037;-84
2023/06/24 10:21:06;;;;;;;3.58;3.28;;;;;;;;;;5012013;28;20062;-85
2023/06/24 10:23:40;;;;;;;3.80;3.50;;;;;;;;;;5014323;28;20030;-84
2023/06/24 10:26:10;;;;;;;3.80;3.50;;;;;;;;;;4981184;28;20088;-81
2023/06/24 10:28:55;;;;;;;6.07;3.30;;;;;;;;;;5018685;28;20034;-84
2023/06/24 10:31:35;;;;;;;3.75;3.53;;;;;;;;;;5016106;28;20062;-84
2023/06/24 10:34:01;;;;;;;5.40;4.80;;;;;;;;;;5011188;28;20025;-84
2023/06/24 10:36:33;;;;;;;5.10;4.70;;;;;;;;;;5015246;28;20038;-84
2023/06/24 10:38:59;;;;;;;4.70;4.07;;;;;;;;;;5012491;28;20061;-84
2023/06/24 10:41:25;;;;;;;4.32;3.85;;;;;;;;;;5015024;28;20042;-84
2023/06/24 10:43:51;;;;;;;5.78;3.63;;;;;;;;;;5014688;28;20041;-85
2023/06/24 10:46:20;;;;;;;4.05;3.70;;;;;;;;;;5013998;28;20038;-86
2023/06/24 10:48:46;;;;;;;5.78;4.30;;;;;;;;;;5014351;28;20040;-84
2023/06/24 10:51:11;;;;;;;4.25;4.00;;;;;;;;;;5013970;28;20046;-84
2023/06/24 10:53:38;;;;;;;4.95;4.40;;;;;;;;;;5014417;28;20038;-87
2023/06/24 10:56:04;;;;;;;7.75;4.63;;;;;;;;;;5019200;28;20085;-88
2023/06/24 10:58:30;;;;;;;10.82;8.48;;;;;;;;;;5017016;28;20046;-85
2023/06/24 11:01:05;;;;;;;5.47;5.07;;;;;;;;;;5017591;28;20065;-85
2023/06/24 11:06:23;;;;;;;5.97;3.95;;;;;;;;;;4992946;28;20047;-84
2023/06/24 11:08:49;;;;;;;6.45;5.80;;;;;;;;;;4966639;28;20027;-83
2023/06/24 11:11:18;;;;;;;5.03;4.50;;;;;;;;;;4999767;28;20046;-85
2023/06/24 11:16:33;;;;;;;4.93;4.53;;;;;;;;;;5313450;23;20074;-86
2023/06/24 11:19:01;;;;;;;7.45;5.03;;;;;;;;;;5035957;28;20042;-86
2023/06/24 11:21:30;;;;;;;8.32;4.55;;;;;;;;;;5037329;28;20041;-86
2023/06/24 11:24:00;;;;;;;4.90;4.40;;;;;;;;;;5039033;28;20057;-87
2023/06/24 11:26:25;;;;;;;5.68;4.45;;;;;;;;;;5036456;28;20107;-82
2023/06/24 11:28:51;;;;;;;4.90;4.50;;;;;;;;;;5020565;28;20025;-85
2023/06/24 11:31:17;;;;;;;4.97;4.47;;;;;;;;;;5021964;28;20036;-85
2023/06/24 11:33:48;;;;;;;5.03;4.72;;;;;;;;;;5035919;28;20025;-83
2023/06/24 11:36:16;;;;;;;5.25;4.95;;;;;;;;;;5035313;28;20026;-85
2023/06/24 11:38:43;;;;;;;6.20;5.28;;;;;;;;;;5038031;28;20053;-84
2023/06/24 11:41:08;;;;;;;5.22;4.85;;;;;;;;;;5037652;28;20034;-83
2023/06/24 11:43:34;;;;;;;5.88;5.38;;;;;;;;;;5036878;28;20018;-85
2023/06/24 11:46:00;;;;;;;6.07;5.30;;;;;;;;;;5038658;28;20037;-85
2023/06/24 11:48:27;;;;;;;10.80;9.80;;;;;;;;;;5192045;23;20058;-84
2023/06/24 11:50:54;;;;;;;6.65;6.13;;;;;;;;;;5012162;28;20026;-85
2023/06/24 11:53:39;;;;;;;6.80;6.32;;;;;;;;;;5013631;28;20045;-85
2023/06/24 11:56:05;;;;;;;8.50;7.90;;;;;;;;;;5010115;28;20347;-83
2023/06/24 11:58:34;;;;;;;12.93;11.73;;;;;;;;;;5009240;28;20098;-86
2023/06/24 12:01:00;;;;;;;14.07;13.15;;;;;;;;;;5012695;28;20065;-85
2023/06/24 12:03:26;;;;;;;10.32;9.57;;;;;;;;;;4999613;28;20046;-82
2023/06/24 12:05:52;;;;;;;5.47;5.10;;;;;;;;;;5014805;28;20069;-83
2023/06/24 12:08:17;;;;;;;7.10;6.47;;;;;;;;;;5016198;28;20022;-85
2023/06/24 12:10:44;;;;;;;11.65;10.63;;;;;;;;;;5016442;28;20081;-85
2023/06/24 12:13:10;;;;;;;6.75;6.03;;;;;;;;;;5017282;28;20069;-81
2023/06/24 12:15:36;;;;;;;5.97;5.43;;;;;;;;;;5013487;28;20042;-85
2023/06/24 12:18:02;;;;;;;7.20;6.70;;;;;;;;;;5015933;28;20042;-85
2023/06/24 12:20:28;;;;;;;7.72;7.05;;;;;;;;;;5013985;28;20084;-85
2023/06/24 12:22:55;;;;;;;6.18;5.68;;;;;;;;;;5009927;28;20141;-85
2023/06/24 12:25:22;;;;;;;4.75;4.45;;;;;;;;;;5004618;28;20114;-86
2023/06/24 12:27:49;;;;;;;6.13;5.53;;;;;;;;;;5012318;28;20106;-84
2023/06/24 12:30:16;;;;;;;5.53;5.13;;;;;;;;;;5013352;28;20031;-85
2023/06/24 12:32:42;;;;;;;5.55;5.15;;;;;;;;;;5013492;28;20063;-85
2023/06/24 12:35:10;;;;;;;5.40;5.07;;;;;;;;;;5015476;28;20050;-83
2023/06/24 12:37:36;;;;;;;7.43;5.50;;;;;;;;;;5011981;28;20049;-82
2023/06/24 12:40:05;;;;;;;5.07;4.78;;;;;;;;;;5012063;28;20133;-87
2023/06/24 12:42:32;;;;;;;5.05;4.65;;;;;;;;;;4996459;28;20117;-82
2023/06/24 12:45:00;;;;;;;5.40;5.00;;;;;;;;;;4992821;28;20053;-82
2023/06/24 12:47:27;;;;;;;6.93;5.15;;;;;;;;;;4960553;28;20054;-81
2023/06/24 12:49:53;;;;;;;5.25;4.93;;;;;;;;;;4994280;28;20437;-82
2023/06/24 12:52:20;;;;;;;5.18;4.85;;;;;;;;;;4996896;28;20062;-81
2023/06/24 12:54:46;;;;;;;5.45;5.00;;;;;;;;;;4967624;28;20540;-83
2023/06/24 12:57:12;;;;;;;4.72;4.43;;;;;;;;;;5005648;28;20061;-82
2023/06/24 12:59:38;;;;;;;4.75;4.43;;;;;;;;;;5006036;28;20034;-82
2023/06/24 13:02:04;;;;;;;4.10;3.80;;;;;;;;;;5002922;28;20042;-81
2023/06/24 13:04:30;;;;;;;4.18;3.88;;;;;;;;;;4998529;28;20038;-83
2023/06/24 13:06:56;;;;;;;4.00;3.58;;;;;;;;;;4999976;28;20039;-83
2023/06/24 13:09:22;;;;;;;4.35;4.05;;;;;;;;;;5000629;28;20081;-83
2023/06/24 13:11:49;;;;;;;4.95;4.45;;;;;;;;;;5000572;28;20033;-83
2023/06/24 13:14:15;;;;;;;5.22;4.82;;;;;;;;;;5002429;28;20505;-83
2023/06/24 13:16:41;;;;;;;4.75;4.45;;;;;;;;;;4998300;28;20069;-83
2023/06/24 13:19:07;;;;;;;4.80;4.40;;;;;;;;;;4996875;28;20038;-82
2023/06/24 13:21:33;;;;;;;4.68;4.35;;;;;;;;;;4995751;28;20085;-81
2023/06/24 13:23:59;;;;;;;5.47;4.68;;;;;;;;;;4999537;28;20030;-82
2023/06/24 13:26:24;;;;;;;7.53;4.68;;;;;;;;;;4997732;28;20065;-79
2023/06/24 13:28:52;;;;;;;4.93;4.53;;;;;;;;;;4998978;28;20031;-83
2023/06/24 13:31:18;;;;;;;4.90;4.60;;;;;;;;;;4999159;28;20034;-82
2023/06/24 13:33:44;;;;;;;5.47;4.97;;;;;;;;;;4992251;28;20126;-81
2023/06/24 13:36:12;;;;;;;4.65;4.35;;;;;;;;;;4994595;28;20054;-82
2023/06/24 13:38:37;;;;;;;5.10;4.80;;;;;;;;;;4995943;28;20089;-83
2023/06/24 13:41:03;;;;;;;5.65;5.30;;;;;;;;;;4998177;28;20472;-82
2023/06/24 13:43:30;;;;;;;5.57;5.10;;;;;;;;;;5000115;28;20049;-83
2023/06/24 13:45:55;;;;;;;5.78;5.38;;;;;;;;;;5006159;28;20042;-83
2023/06/24 13:48:23;;;;;;;5.90;5.40;;;;;;;;;;5012294;28;20100;-83
2023/06/24 13:50:49;;;;;;;5.80;5.30;;;;;;;;;;5012923;28;20142;-83
2023/06/24 13:53:15;;;;;;;7.13;5.60;;;;;;;;;;5013264;28;20034;-84
2023/06/24 13:55:41;;;;;;;5.13;4.72;;;;;;;;;;5015941;28;20057;-85
2023/06/24 13:58:08;;;;;;;5.43;4.93;;;;;;;;;;4993874;28;20041;-83
2023/06/24 14:00:34;;;;;;;4.30;4.00;;;;;;;;;;4996211;28;20050;-83
2023/06/24 14:03:00;;;;;;;7.97;5.50;;;;;;;;;;4995162;28;20094;-86
2023/06/24 14:05:26;;;;;;;5.65;5.25;;;;;;;;;;5013173;28;20053;-82
2023/06/24 14:07:52;;;;;;;5.45;4.95;;;;;;;;;;5019991;28;20041;-84
2023/06/24 14:10:18;;;;;;;5.18;4.68;;;;;;;;;;5014327;28;20046;-83
2023/06/24 14:12:44;;;;;;;5.15;4.30;;;;;;;;;;4990642;28;20061;-83
2023/06/24 14:15:10;;;;;;;4.95;4.63;;;;;;;;;;5009827;28;20042;-83
2023/06/24 14:17:36;;;;;;;4.50;4.20;;;;;;;;;;4992353;28;20022;-83
2023/06/24 14:20:03;;;;;;;5.28;4.70;;;;;;;;;;5011805;28;20049;-83
2023/06/24 14:22:29;;;;;;;5.32;4.32;;;;;;;;;;5012427;28;20037;-86
2023/06/24 14:24:55;;;;;;;5.28;4.93;;;;;;;;;;4971287;28;20058;-82
2023/06/24 14:27:21;;;;;;;4.68;4.18;;;;;;;;;;5002884;28;20042;-83
2023/06/24 14:29:47;;;;;;;6.78;5.13;;;;;;;;;;5004076;28;20125;-82
2023/06/24 14:32:13;;;;;;;4.47;3.85;;;;;;;;;;5002344;28;20045;-83
2023/06/24 14:34:40;;;;;;;6.93;4.53;;;;;;;;;;5000801;28;20038;-83
2023/06/24 14:37:06;;;;;;;4.32;3.97;;;;;;;;;;4999632;28;20034;-82
2023/06/24 14:39:32;;;;;;;4.15;3.88;;;;;;;;;;4999812;28;20049;-82
2023/06/24 14:41:58;;;;;;;4.18;3.88;;;;;;;;;;5014540;28;20039;-84
2023/06/24 14:44:24;;;;;;;4.00;3.70;;;;;;;;;;4997681;28;20019;-84
2023/06/24 14:46:50;;;;;;;3.60;3.40;;;;;;;;;;5015948;28;20038;-84